sensor_id;sensor_type;location;lat;lon;timestamp;pressure;altitude;pressure_sealevel;temperature;humidity
11038;BME280;5572;49.540;11.932;2024-01-10T07:38:57;98972.75;;;-4.64;100.00
11038;BME280;5572;49.540;11.932;2024-01-10T07:41:25;99006.78;;;-4.61;100.00
11038;BME280;5572;49.540;11.932;2024-01-10T07:43:53;99008.88;;;-4.36;100.00
11038;BME280;5572;49.540;11.932;2024-01-10T07:46:25;98974.72;;;-4.47;100.00
11038;BME280;5572;49.540;11.932;2024-01-10T07:48:53;98988.06;;;-4.39;100.00
11038;BME280;5572;49.540;11.932;2024-01-10T07:51:21;98963.34;;;-4.20;100.00
11038;BME280;5572;49.540;11.932;2024-01-10T07:53:48;99016.13;;;-4.29;100.00
11038;BME280;5572;49.540;11.932;2024-01-10T07:56:18;98994.63;;;-4.15;100.00
11038;BME280;5572;49.540;11.932;2024-01-10T07:58:46;99023.38;;;-4.03;100.00
11038;BME280;5572;49.540;11.932;2024-01-10T08:01:15;99017.53;;;-4.16;100.00
11038;BME280;5572;49.540;11.932;2024-01-10T08:03:42;98942.50;;;-4.23;100.00
11038;BME280;5572;49.540;11.932;2024-01-10T08:57:55;98905.81;;;-2.98;100.00
11038;BME280;5572;49.540;11.932;2024-01-10T09:20:40;98923.31;;;-1.24;100.00
11038;BME280;5572;49.540;11.932;2024-01-10T09:23:08;98674.41;;;0.13;100.00
11038;BME280;5572;49.540;11.932;2024-01-10T09:25:37;98750.69;;;0.12;100.00
11038;BME280;5572;49.540;11.932;2024-01-10T09:28:14;98515.19;;;2.07;100.00
11038;BME280;5572;49.540;11.932;2024-01-10T09:30:52;98544.28;;;2.44;100.00
11038;BME280;5572;49.540;11.932;2024-01-10T09:33:19;98616.66;;;-0.39;100.00
11038;BME280;5572;49.540;11.932;2024-01-10T09:39:16;98661.75;;;2.00;100.00
11038;BME280;5572;49.540;11.932;2024-01-10T09:41:46;98378.31;;;4.21;100.00
11038;BME280;5572;49.540;11.932;2024-01-10T09:44:14;98447.28;;;2.09;100.00
11038;BME280;5572;49.540;11.932;2024-01-10T09:46:43;98606.28;;;3.29;100.00
11038;BME280;5572;49.540;11.932;2024-01-10T17:57:52;98939.25;;;-1.92;100.00
11038;BME280;5572;49.540;11.932;2024-01-10T18:00:21;98903.75;;;-2.25;100.00
11038;BME280;5572;49.540;11.932;2024-01-10T18:03:11;98904.69;;;-1.91;100.00
11038;BME280;5572;49.540;11.932;2024-01-10T19:05:58;98800.16;;;-2.47;100.00
11038;BME280;5572;49.540;11.932;2024-01-10T19:08:26;98785.78;;;-2.62;100.00
11038;BME280;5572;49.540;11.932;2024-01-10T19:10:56;98784.47;;;-2.41;100.00
11038;BME280;5572;49.540;11.932;2024-01-10T19:13:23;98773.63;;;-2.55;100.00
11038;BME280;5572;49.540;11.932;2024-01-10T19:15:50;98780.03;;;-2.58;100.00
11038;BME280;5572;49.540;11.932;2024-01-10T19:18:17;98779.66;;;-2.45;100.00
11038;BME280;5572;49.540;11.932;2024-01-10T19:20:45;98765.34;;;-2.52;100.00
11038;BME280;5572;49.540;11.932;2024-01-10T19:23:36;98763.44;;;-2.42;100.00
11038;BME280;5572;49.540;11.932;2024-01-10T19:26:04;98764.47;;;-2.60;100.00
11038;BME280;5572;49.540;11.932;2024-01-10T19:35:19;98739.66;;;-2.34;100.00
11038;BME280;5572;49.540;11.932;2024-01-10T19:37:48;98738.31;;;-2.38;100.00
11038;BME280;5572;49.540;11.932;2024-01-10T19:47:01;98742.50;;;-2.53;100.00
11038;BME280;5572;49.540;11.932;2024-01-10T19:49:30;98735.97;;;-2.66;100.00
11038;BME280;5572;49.540;11.932;2024-01-10T19:52:00;98732.81;;;-2.70;100.00
11038;BME280;5572;49.540;11.932;2024-01-10T19:54:50;98723.25;;;-2.63;100.00
11038;BME280;5572;49.540;11.932;2024-01-10T20:20:34;98712.88;;;-2.99;100.00
11038;BME280;5572;49.540;11.932;2024-01-10T21:40:38;98719.16;;;-4.69;100.00
11038;BME280;5572;49.540;11.932;2024-01-10T21:43:06;98715.41;;;-4.67;100.00
11038;BME280;5572;49.540;11.932;2024-01-10T21:45:33;98712.88;;;-4.59;100.00
11038;BME280;5572;49.540;11.932;2024-01-10T21:48:01;98708.22;;;-4.11;100.00
11038;BME280;5572;49.540;11.932;2024-01-10T21:50:29;98710.13;;;-4.67;100.00
11038;BME280;5572;49.540;11.932;2024-01-10T21:52:56;98706.94;;;-4.70;100.00
11038;BME280;5572;49.540;11.932;2024-01-10T21:55:24;98708.19;;;-4.74;100.00
11038;BME280;5572;49.540;11.932;2024-01-10T21:57:52;98716.38;;;-4.68;100.00
11038;BME280;5572;49.540;11.932;2024-01-10T22:00:20;98728.03;;;-4.70;100.00
11038;BME280;5572;49.540;11.932;2024-01-10T22:02:48;98737.03;;;-4.63;100.00
11038;BME280;5572;49.540;11.932;2024-01-10T22:05:15;98728.75;;;-4.78;100.00
11038;BME280;5572;49.540;11.932;2024-01-10T22:07:42;98738.16;;;-4.66;100.00
11038;BME280;5572;49.540;11.932;2024-01-10T22:10:09;98736.94;;;-5.00;100.00
11038;BME280;5572;49.540;11.932;2024-01-10T22:12:37;98755.66;;;-4.74;100.00
11038;BME280;5572;49.540;11.932;2024-01-10T22:21:49;98740.69;;;-4.83;100.00
11038;BME280;5572;49.540;11.932;2024-01-10T22:24:16;98741.25;;;-4.99;100.00
11038;BME280;5572;49.540;11.932;2024-01-10T22:26:43;98736.38;;;-4.94;100.00
11038;BME280;5572;49.540;11.932;2024-01-10T22:29:10;98743.31;;;-4.93;100.00
11038;BME280;5572;49.540;11.932;2024-01-10T22:31:37;98739.75;;;-5.01;100.00
11038;BME280;5572;49.540;11.932;2024-01-10T22:34:04;98745.00;;;-5.01;100.00
11038;BME280;5572;49.540;11.932;2024-01-10T22:36:32;98741.25;;;-5.17;100.00
11038;BME280;5572;49.540;11.932;2024-01-10T22:39:02;98748.47;;;-5.10;100.00
11038;BME280;5572;49.540;11.932;2024-01-10T22:41:30;98746.53;;;-5.17;100.00
11038;BME280;5572;49.540;11.932;2024-01-10T22:43:59;98756.81;;;-5.14;100.00
11038;BME280;5572;49.540;11.932;2024-01-10T22:46:26;98762.19;;;-5.44;100.00
11038;BME280;5572;49.540;11.932;2024-01-10T22:48:54;98753.59;;;-5.37;100.00
11038;BME280;5572;49.540;11.932;2024-01-10T22:51:23;98757.34;;;-5.30;100.00
11038;BME280;5572;49.540;11.932;2024-01-10T22:53:51;98757.34;;;-5.20;100.00
11038;BME280;5572;49.540;11.932;2024-01-10T22:56:21;98750.94;;;-5.37;100.00
11038;BME280;5572;49.540;11.932;2024-01-10T22:58:49;98767.47;;;-5.44;100.00
11038;BME280;5572;49.540;11.932;2024-01-10T23:01:16;98778.09;;;-5.65;100.00
11038;BME280;5572;49.540;11.932;2024-01-10T23:03:43;98767.28;;;-5.62;100.00
11038;BME280;5572;49.540;11.932;2024-01-10T23:15:55;98749.44;;;-5.39;100.00
